createdAt,value
2018-11-05T00:00:49.868Z,5.20
2018-11-05T00:03:17.967Z,5.17
2018-11-05T00:05:46.597Z,5.77
2018-11-05T00:08:15.068Z,5.70
2018-11-05T00:10:43.680Z,5.27
2018-11-05T00:13:12.390Z,4.70
2018-11-05T00:15:41.034Z,4.63
2018-11-05T00:18:09.561Z,4.73
2018-11-05T00:20:38.932Z,5.10
2018-11-05T00:23:07.561Z,4.33
2018-11-05T00:25:36.260Z,5.00
2018-11-05T00:28:04.833Z,4.73
2018-11-05T00:30:32.907Z,4.90
2018-11-05T00:33:01.442Z,4.67
2018-11-05T00:35:30.061Z,5.43
2018-11-05T00:37:58.583Z,4.57
2018-11-05T00:40:27.160Z,5.77
2018-11-05T00:42:56.256Z,5.20
2018-11-05T00:45:24.744Z,4.80
2018-11-05T00:47:53.659Z,4.57
2018-11-05T00:50:21.722Z,5.20
2018-11-05T00:52:49.734Z,4.70
2018-11-05T00:55:17.990Z,4.47
2018-11-05T00:57:45.985Z,4.60
2018-11-05T01:00:15.281Z,5.30
2018-11-05T01:02:44.384Z,5.80
2018-11-05T01:05:13.519Z,4.97
2018-11-05T01:07:42.297Z,4.00
2018-11-05T01:10:11.434Z,5.27
2018-11-05T01:12:39.438Z,4.70
2018-11-05T01:15:08.265Z,5.30
2018-11-05T01:17:36.305Z,4.43
2018-11-05T01:20:04.397Z,4.27
2018-11-05T01:22:32.450Z,4.90
2018-11-05T01:25:01.490Z,5.47
2018-11-05T01:27:29.501Z,4.60
2018-11-05T01:29:57.501Z,5.67
2018-11-05T01:32:25.554Z,5.43
2018-11-05T01:34:53.560Z,4.80
2018-11-05T01:37:21.596Z,4.73
2018-11-05T01:39:49.611Z,5.47
2018-11-05T01:42:18.693Z,6.40
2018-11-05T01:44:46.688Z,4.43
2018-11-05T01:47:14.720Z,5.40
2018-11-05T01:49:43.726Z,5.17
2018-11-05T01:52:11.743Z,5.20
2018-11-05T01:54:39.761Z,5.20
2018-11-05T01:57:07.759Z,4.90
2018-11-05T01:59:35.787Z,5.63
2018-11-05T02:02:03.782Z,5.70
2018-11-05T02:04:31.806Z,4.13
2018-11-05T02:06:59.813Z,4.30
2018-11-05T02:09:27.841Z,5.10
2018-11-05T02:11:55.842Z,5.60
2018-11-05T02:14:23.862Z,5.03
2018-11-05T02:16:51.884Z,4.70
2018-11-05T02:19:19.895Z,5.33
2018-11-05T02:21:47.889Z,4.40
2018-11-05T02:24:15.922Z,5.27
2018-11-05T02:26:43.925Z,5.57
2018-11-05T02:29:11.960Z,4.43
2018-11-05T02:31:39.969Z,4.60
2018-11-05T02:34:07.998Z,5.23
2018-11-05T02:36:36.008Z,5.10
2018-11-05T02:39:05.694Z,4.50
2018-11-05T02:41:33.717Z,5.23
2018-11-05T02:44:01.742Z,5.23
2018-11-05T02:46:29.755Z,4.87
2018-11-05T02:48:57.762Z,4.30
2018-11-05T02:51:25.772Z,5.97
2018-11-05T02:53:53.790Z,5.03
2018-11-05T02:56:21.783Z,4.70
2018-11-05T02:58:49.810Z,5.23
2018-11-05T03:01:17.811Z,5.67
2018-11-05T03:03:45.827Z,4.13
2018-11-05T03:06:13.839Z,4.67
2018-11-05T03:08:41.868Z,5.10
2018-11-05T03:11:09.917Z,5.10
2018-11-05T03:13:37.937Z,4.40
2018-11-05T03:16:06.079Z,4.40
2018-11-05T03:18:34.073Z,3.43
2018-11-05T03:21:03.098Z,4.13
2018-11-05T03:23:32.119Z,3.97
2018-11-05T03:26:00.153Z,5.10
2018-11-05T03:28:28.166Z,4.13
2018-11-05T03:30:56.199Z,4.50
2018-11-05T03:33:24.213Z,4.73
2018-11-05T03:35:52.395Z,4.20
2018-11-05T03:38:20.246Z,5.10
2018-11-05T03:40:49.292Z,4.80
2018-11-05T03:43:17.306Z,4.47
2018-11-05T03:45:45.301Z,4.70
2018-11-05T03:48:13.334Z,4.40
2018-11-05T03:50:41.325Z,4.23
2018-11-05T03:53:09.345Z,3.87
2018-11-05T03:55:37.442Z,4.67
2018-11-05T04:00:39.030Z,4.63
2018-11-05T04:03:08.094Z,4.83
2018-11-05T04:05:36.081Z,4.53
2018-11-05T04:08:04.100Z,4.80
2018-11-05T04:10:32.124Z,3.90
2018-11-05T04:13:06.642Z,5.07
2018-11-05T04:15:34.713Z,4.50
2018-11-05T04:18:02.669Z,4.17
2018-11-05T04:20:30.678Z,4.70
2018-11-05T04:22:58.693Z,4.07
2018-11-05T04:25:26.702Z,5.33
2018-11-05T04:27:54.817Z,4.83
2018-11-05T04:30:23.721Z,4.40
2018-11-05T04:32:51.760Z,5.30
2018-11-05T04:35:19.769Z,4.50
2018-11-05T04:37:47.806Z,5.30
2018-11-05T04:40:15.814Z,4.20
2018-11-05T04:42:43.814Z,4.20
2018-11-05T04:45:12.914Z,4.33
2018-11-05T04:47:41.555Z,5.20
2018-11-05T04:50:10.568Z,4.83
2018-11-05T04:52:39.409Z,4.20
2018-11-05T04:55:12.787Z,4.13
2018-11-05T04:57:40.785Z,4.43
2018-11-05T05:00:09.670Z,4.53
2018-11-05T05:02:37.940Z,4.30
2018-11-05T05:05:06.062Z,4.27
2018-11-05T05:07:40.494Z,3.43
2018-11-05T05:10:08.726Z,4.60
2018-11-05T05:12:37.102Z,3.77
2018-11-05T05:15:05.310Z,4.90
2018-11-05T05:17:33.354Z,4.47
2018-11-05T05:20:01.437Z,4.30
2018-11-05T05:22:29.959Z,4.10
2018-11-05T05:24:57.933Z,4.10
2018-11-05T05:27:25.937Z,3.90
2018-11-05T05:29:53.939Z,4.23
2018-11-05T05:32:21.972Z,3.40
2018-11-05T05:34:49.953Z,4.10
2018-11-05T05:37:17.986Z,3.70
2018-11-05T05:39:46.007Z,4.47
2018-11-05T05:42:14.068Z,3.57
2018-11-05T05:44:42.054Z,3.40
2018-11-05T05:47:10.114Z,4.33
2018-11-05T05:49:38.137Z,4.93
2018-11-05T05:52:06.168Z,5.40
2018-11-05T05:54:34.166Z,4.60
2018-11-05T05:57:02.394Z,3.27
2018-11-05T05:59:30.394Z,3.60
2018-11-05T06:01:58.418Z,5.00
2018-11-05T06:04:26.414Z,4.00
2018-11-05T06:06:55.600Z,4.13
2018-11-05T06:09:30.074Z,5.00
2018-11-05T06:11:58.693Z,4.50
2018-11-05T06:14:27.293Z,5.20
2018-11-05T06:16:55.804Z,4.33
2018-11-05T06:19:24.270Z,4.50
2018-11-05T06:21:52.769Z,4.20
2018-11-05T06:24:22.424Z,4.83
2018-11-05T06:26:52.085Z,4.00
2018-11-05T06:29:21.050Z,3.53
2018-11-05T06:31:49.122Z,3.83
2018-11-05T06:34:18.897Z,4.37
2018-11-05T06:36:47.534Z,4.23
2018-11-05T06:39:15.803Z,3.90
2018-11-05T06:41:44.438Z,3.90
2018-11-05T06:44:13.063Z,3.23
2018-11-05T06:46:41.577Z,3.77
2018-11-05T06:49:10.044Z,6.30
2018-11-05T06:51:38.668Z,6.80
2018-11-05T06:54:07.717Z,13.97
2018-11-05T06:56:35.757Z,15.80
2018-11-05T06:59:04.678Z,18.43
2018-11-05T07:01:32.716Z,17.90
2018-11-05T07:04:00.713Z,17.23
2018-11-05T07:06:29.748Z,19.63
2018-11-05T07:08:57.765Z,19.43
2018-11-05T07:11:25.847Z,18.23
2018-11-05T07:13:53.785Z,18.80
2018-11-05T07:16:21.841Z,15.77
2018-11-05T07:18:50.042Z,18.03
2018-11-05T07:21:18.128Z,15.00
2018-11-05T07:23:46.150Z,15.03
2018-11-05T07:26:14.174Z,14.17
2018-11-05T07:28:42.193Z,14.47
2018-11-05T07:31:10.277Z,14.20
2018-11-05T07:33:38.390Z,11.97
2018-11-05T07:36:06.345Z,12.93
2018-11-05T07:38:34.368Z,13.33
2018-11-05T07:41:02.395Z,13.97
2018-11-05T07:43:30.402Z,12.13
2018-11-05T07:45:58.439Z,12.63
2018-11-05T07:48:26.978Z,12.70
2018-11-05T07:50:55.273Z,10.43
2018-11-05T07:53:23.190Z,11.00
2018-11-05T07:55:51.214Z,11.00
2018-11-05T07:58:19.225Z,10.30
2018-11-05T08:00:50.362Z,10.00
2018-11-05T08:03:18.383Z,10.40
2018-11-05T08:05:46.418Z,9.33
2018-11-05T08:08:14.457Z,9.13
2018-11-05T08:10:42.610Z,10.23
2018-11-05T08:13:10.774Z,8.10
2018-11-05T08:15:38.809Z,9.30
2018-11-05T08:18:06.818Z,8.50
2018-11-05T08:20:35.919Z,7.60
2018-11-05T08:23:03.954Z,8.57
2018-11-05T08:25:32.988Z,7.37
2018-11-05T08:28:01.010Z,7.73
2018-11-05T08:30:29.035Z,7.93
2018-11-05T08:32:57.115Z,7.63
2018-11-05T08:35:25.164Z,7.30
2018-11-05T08:37:53.482Z,7.60
2018-11-05T08:40:22.818Z,7.27
2018-11-05T08:42:51.538Z,5.63
2018-11-05T08:45:21.718Z,7.97
2018-11-05T08:47:49.729Z,6.27
2018-11-05T08:50:18.767Z,7.27
2018-11-05T08:52:46.738Z,5.53
2018-11-05T08:55:16.161Z,5.97
2018-11-05T08:57:45.232Z,6.40
2018-11-05T09:00:20.896Z,6.70
2018-11-05T09:02:49.005Z,5.80
2018-11-05T09:07:52.549Z,5.50
2018-11-05T09:10:20.818Z,5.30
2018-11-05T09:12:48.618Z,5.87
2018-11-05T09:15:18.970Z,5.83
2018-11-05T09:17:47.275Z,6.10
2018-11-05T09:20:16.219Z,5.83
2018-11-05T09:22:44.245Z,6.03
2018-11-05T09:25:13.986Z,5.77
2018-11-05T09:27:42.032Z,4.90
2018-11-05T09:30:12.693Z,5.30
2018-11-05T09:32:40.751Z,4.50
2018-11-05T09:35:09.147Z,5.90
2018-11-05T09:37:37.245Z,5.17
2018-11-05T09:40:06.234Z,6.57
2018-11-05T09:42:34.279Z,4.90
2018-11-05T09:45:02.288Z,5.37
2018-11-05T09:47:30.298Z,5.07
2018-11-05T09:49:58.326Z,5.10
2018-11-05T09:52:26.359Z,4.57
2018-11-05T09:54:54.370Z,4.60
2018-11-05T09:57:22.415Z,5.60
2018-11-05T09:59:50.384Z,5.43
2018-11-05T10:02:18.385Z,5.47
2018-11-05T10:04:46.597Z,4.77
2018-11-05T10:07:14.380Z,5.57
2018-11-05T10:09:42.422Z,5.27
2018-11-05T10:12:10.401Z,4.23
2018-11-05T10:14:38.438Z,4.50
2018-11-05T10:17:07.093Z,4.10
2018-11-05T10:19:35.263Z,5.47
2018-11-05T10:22:03.279Z,4.50
2018-11-05T10:24:31.394Z,4.80
2018-11-05T10:26:59.338Z,3.93
2018-11-05T10:29:27.366Z,5.20
2018-11-05T10:31:55.410Z,5.20
2018-11-05T10:34:23.425Z,5.30
2018-11-05T10:36:51.446Z,4.90
2018-11-05T10:39:19.469Z,5.00
2018-11-05T10:41:47.595Z,5.00
2018-11-05T10:44:15.631Z,4.80
2018-11-05T10:46:43.646Z,5.00
2018-11-05T10:49:11.672Z,4.80
2018-11-05T10:51:39.751Z,4.80
2018-11-05T10:54:07.733Z,5.07
2018-11-05T10:56:35.743Z,4.50
2018-11-05T10:59:04.463Z,5.77
2018-11-05T11:01:37.747Z,5.07
2018-11-05T11:04:11.190Z,5.20
2018-11-05T11:06:39.149Z,5.70
2018-11-05T11:09:07.818Z,5.17
2018-11-05T11:11:36.858Z,5.03
2018-11-05T11:14:04.946Z,5.13
2018-11-05T11:16:32.959Z,5.20
2018-11-05T11:19:00.995Z,3.90
2018-11-05T11:21:29.009Z,4.40
2018-11-05T11:23:58.072Z,4.13
2018-11-05T11:26:26.083Z,4.57
2018-11-05T11:28:54.187Z,3.40
2018-11-05T11:31:22.139Z,4.00
2018-11-05T11:33:50.178Z,4.27
2018-11-05T11:36:18.296Z,4.27
2018-11-05T11:38:46.303Z,3.87
2018-11-05T11:41:14.299Z,3.80
2018-11-05T11:43:42.346Z,4.00
2018-11-05T11:46:10.346Z,5.80
2018-11-05T11:48:38.382Z,5.57
2018-11-05T11:51:06.396Z,4.73
2018-11-05T11:53:34.552Z,4.40
2018-11-05T11:56:02.418Z,4.13
2018-11-05T11:58:30.447Z,4.80
2018-11-05T12:00:58.458Z,4.30
2018-11-05T12:03:26.663Z,4.37
2018-11-05T12:05:55.672Z,5.37
2018-11-05T12:08:23.718Z,5.67
2018-11-05T12:10:51.709Z,4.10
2018-11-05T12:13:19.746Z,4.00
2018-11-05T12:15:47.754Z,4.43
2018-11-05T12:18:15.778Z,4.90
2018-11-05T12:20:43.787Z,4.07
2018-11-05T12:23:11.824Z,5.00
2018-11-05T12:25:39.830Z,4.50
2018-11-05T12:28:07.875Z,4.93
2018-11-05T12:30:35.894Z,5.30
2018-11-05T12:33:03.938Z,4.33
2018-11-05T12:35:31.962Z,4.30
2018-11-05T12:37:59.995Z,4.47
2018-11-05T12:40:28.031Z,4.40
2018-11-05T12:42:56.087Z,3.93
2018-11-05T12:45:24.128Z,4.73
2018-11-05T12:47:52.166Z,3.70
2018-11-05T12:50:21.399Z,4.20
2018-11-05T12:52:50.331Z,4.23
2018-11-05T12:55:18.330Z,4.50
2018-11-05T12:57:46.806Z,4.80
2018-11-05T13:00:16.537Z,4.13
2018-11-05T13:02:44.770Z,3.77
2018-11-05T13:05:13.525Z,4.23
2018-11-05T13:07:41.835Z,4.40
2018-11-05T13:10:10.510Z,4.47
2018-11-05T13:12:38.758Z,4.50
2018-11-05T13:15:07.221Z,4.83
2018-11-05T13:17:35.306Z,4.03
2018-11-05T13:20:03.574Z,4.17
2018-11-05T13:22:31.637Z,4.00
2018-11-05T13:24:59.623Z,4.13
2018-11-05T13:27:27.656Z,4.13
2018-11-05T13:29:55.821Z,3.90
2018-11-05T13:32:23.694Z,3.77
2018-11-05T13:34:51.707Z,4.40
2018-11-05T13:37:20.069Z,4.80
2018-11-05T13:39:47.763Z,3.83
2018-11-05T13:42:15.795Z,4.40
2018-11-05T13:44:43.875Z,4.00
2018-11-05T13:47:12.618Z,4.40
2018-11-05T13:49:40.014Z,4.50
2018-11-05T13:52:08.021Z,4.70
2018-11-05T13:54:36.190Z,4.93
2018-11-05T13:57:04.145Z,4.70
2018-11-05T13:59:32.138Z,4.77
2018-11-05T14:02:00.170Z,4.13
2018-11-05T14:04:28.220Z,4.57
2018-11-05T14:06:56.213Z,6.20
2018-11-05T14:09:24.234Z,4.43
2018-11-05T14:11:52.269Z,5.13
2018-11-05T14:14:20.279Z,4.33
2018-11-05T14:16:49.301Z,4.63
2018-11-05T14:19:17.310Z,4.87
2018-11-05T14:21:45.330Z,4.43
2018-11-05T14:24:13.342Z,4.07
2018-11-05T14:26:41.378Z,6.30
2018-11-05T14:29:09.768Z,3.70
2018-11-05T14:31:37.430Z,4.80
2018-11-05T14:34:06.047Z,4.00
2018-11-05T14:36:34.089Z,5.30
2018-11-05T14:39:02.108Z,4.27
2018-11-05T14:41:30.134Z,3.67
2018-11-05T14:43:58.162Z,3.83
2018-11-05T14:46:26.174Z,3.50
2018-11-05T14:48:55.202Z,3.63
2018-11-05T14:51:23.206Z,2.80
2018-11-05T14:53:51.235Z,3.53
2018-11-05T14:56:20.250Z,5.43
2018-11-05T14:58:48.282Z,4.83
2018-11-05T15:01:16.282Z,5.10
2018-11-05T15:03:44.319Z,4.63
2018-11-05T15:06:12.347Z,4.27
2018-11-05T15:08:40.434Z,4.10
2018-11-05T15:11:08.767Z,5.30
2018-11-05T15:13:36.793Z,5.57
2018-11-05T15:16:05.315Z,4.33
2018-11-05T15:18:33.363Z,3.87
2018-11-05T15:21:01.360Z,3.87
2018-11-05T15:23:29.366Z,4.03
2018-11-05T15:25:57.397Z,4.30
2018-11-05T15:28:26.404Z,3.73
2018-11-05T15:30:54.411Z,4.20
2018-11-05T15:33:22.461Z,3.93
2018-11-05T15:35:51.496Z,4.53
2018-11-05T15:38:19.618Z,4.77
2018-11-05T15:40:47.626Z,5.47
2018-11-05T15:43:15.699Z,4.80
2018-11-05T15:45:43.715Z,5.20
2018-11-05T15:48:11.738Z,4.40
2018-11-05T15:50:40.523Z,3.83
2018-11-05T15:53:08.919Z,4.43
2018-11-05T15:55:37.513Z,4.33
2018-11-05T15:58:05.560Z,4.33
2018-11-05T16:00:33.553Z,5.33
2018-11-05T16:03:02.801Z,4.80
2018-11-05T16:05:30.806Z,4.60
2018-11-05T16:07:58.834Z,4.37
2018-11-05T16:10:26.841Z,4.70
2018-11-05T16:12:54.858Z,4.07
2018-11-05T16:15:23.881Z,5.30
2018-11-05T16:17:51.916Z,4.57
2018-11-05T16:20:21.539Z,3.47
2018-11-05T16:22:50.413Z,5.20
2018-11-05T16:25:18.430Z,5.00
2018-11-05T16:27:47.343Z,3.70
2018-11-05T16:30:45.736Z,3.50
2018-11-05T16:33:13.694Z,4.27
2018-11-05T16:35:41.808Z,4.80
2018-11-05T16:38:09.725Z,5.00
2018-11-05T16:40:38.750Z,4.23
2018-11-05T16:43:06.887Z,5.27
2018-11-05T16:45:34.990Z,4.60
2018-11-05T16:48:02.998Z,4.83
2018-11-05T16:50:31.018Z,3.80
2018-11-05T16:52:59.081Z,5.43
2018-11-05T16:55:27.098Z,4.63
2018-11-05T16:57:55.199Z,4.60
2018-11-05T17:00:23.134Z,5.03
2018-11-05T17:02:51.226Z,4.73
2018-11-05T17:05:19.185Z,4.40
2018-11-05T17:07:47.210Z,3.83
2018-11-05T17:10:15.536Z,5.40
2018-11-05T17:12:44.102Z,3.60
2018-11-05T17:15:13.440Z,5.40
2018-11-05T17:17:41.919Z,5.33
2018-11-05T17:20:11.066Z,5.17
2018-11-05T17:22:39.498Z,4.33
2018-11-05T17:25:07.641Z,4.10
2018-11-05T17:27:35.781Z,5.00
2018-11-05T17:30:04.182Z,3.97
2018-11-05T17:32:32.207Z,4.37
2018-11-05T17:35:00.226Z,3.40
2018-11-05T17:37:28.261Z,5.00
2018-11-05T17:39:56.317Z,4.27
2018-11-05T17:42:24.289Z,5.80
2018-11-05T17:44:52.311Z,4.60
2018-11-05T17:47:20.336Z,4.60
2018-11-05T17:49:48.343Z,5.00
2018-11-05T17:52:16.388Z,3.97
2018-11-05T17:54:44.412Z,3.33
2018-11-05T17:57:12.426Z,4.20
2018-11-05T17:59:40.762Z,4.13
2018-11-05T18:02:13.106Z,4.57
2018-11-05T18:04:41.143Z,4.60
2018-11-05T18:07:09.154Z,5.20
2018-11-05T18:09:37.225Z,4.23
2018-11-05T18:12:05.261Z,4.00
2018-11-05T18:14:34.319Z,4.53
2018-11-05T18:17:02.347Z,4.40
2018-11-05T18:19:30.390Z,4.60
2018-11-05T18:21:58.403Z,4.10
2018-11-05T18:24:26.505Z,4.73
2018-11-05T18:26:54.450Z,4.67
2018-11-05T18:29:22.502Z,4.70
2018-11-05T18:31:50.519Z,4.40
2018-11-05T18:34:18.549Z,4.70
2018-11-05T18:36:47.586Z,3.63
2018-11-05T18:39:15.626Z,4.80
2018-11-05T18:41:43.645Z,4.70
2018-11-05T18:44:11.707Z,4.53
2018-11-05T18:46:39.710Z,5.00
2018-11-05T18:49:07.784Z,4.50
2018-11-05T18:51:36.822Z,4.20
2018-11-05T18:54:04.846Z,4.47
2018-11-05T18:56:32.927Z,4.13
2018-11-05T18:59:00.915Z,5.00
2018-11-05T19:01:28.984Z,5.20
2018-11-05T19:03:57.234Z,5.27
2018-11-05T19:06:25.262Z,4.90
2018-11-05T19:08:54.321Z,4.83
2018-11-05T19:11:22.333Z,5.23
2018-11-05T19:13:50.361Z,4.37
2018-11-05T19:16:18.403Z,4.80
2018-11-05T19:18:46.426Z,4.50
2018-11-05T19:21:15.454Z,5.63
2018-11-05T19:23:43.699Z,5.60
2018-11-05T19:26:11.538Z,4.60
2018-11-05T19:28:39.588Z,4.83
2018-11-05T19:31:07.582Z,4.87
2018-11-05T19:33:35.821Z,5.47
2018-11-05T19:36:04.988Z,5.40
2018-11-05T19:38:32.991Z,5.10
2018-11-05T19:41:02.090Z,5.40
2018-11-05T19:43:30.125Z,5.43
2018-11-05T19:45:58.159Z,4.43
2018-11-05T19:48:26.197Z,5.97
2018-11-05T19:50:54.205Z,4.33
2018-11-05T19:53:22.271Z,5.33
2018-11-05T19:55:50.317Z,6.03
2018-11-05T19:58:18.339Z,4.80
2018-11-05T20:00:46.413Z,4.50
2018-11-05T20:03:14.357Z,4.90
2018-11-05T20:05:42.394Z,3.73
2018-11-05T20:08:10.434Z,4.87
2018-11-05T20:10:39.550Z,5.27
2018-11-05T20:13:07.514Z,5.93
2018-11-05T20:15:36.666Z,5.57
2018-11-05T20:18:04.889Z,5.10
2018-11-05T20:20:33.020Z,4.90
2018-11-05T20:23:01.130Z,4.70
2018-11-05T20:25:29.041Z,5.23
2018-11-05T20:27:57.073Z,5.60
2018-11-05T20:30:26.410Z,4.83
2018-11-05T20:32:55.765Z,4.93
2018-11-05T20:35:23.492Z,4.60
2018-11-05T20:37:51.663Z,5.90
2018-11-05T20:40:20.615Z,5.73
2018-11-05T20:42:49.634Z,6.10
2018-11-05T20:45:18.370Z,6.00
2018-11-05T20:47:46.404Z,5.77
2018-11-05T20:50:15.238Z,5.80
2018-11-05T20:52:43.362Z,5.10
2018-11-05T20:55:13.121Z,5.83
2018-11-05T20:57:41.622Z,5.20
2018-11-05T21:00:11.090Z,4.73
2018-11-05T21:02:40.241Z,4.80
2018-11-05T21:05:08.446Z,5.70
2018-11-05T21:07:36.478Z,4.80
2018-11-05T21:10:05.329Z,5.20
2018-11-05T21:12:33.375Z,5.17
2018-11-05T21:15:02.422Z,6.00
2018-11-05T21:17:30.450Z,5.37
2018-11-05T21:19:58.455Z,5.33
2018-11-05T21:22:26.584Z,5.40
2018-11-05T21:24:54.526Z,5.60
2018-11-05T21:27:23.427Z,6.10
2018-11-05T21:29:51.490Z,6.70
2018-11-05T21:32:19.518Z,5.80
2018-11-05T21:34:47.600Z,5.80
2018-11-05T21:37:15.626Z,5.77
2018-11-05T21:39:43.642Z,5.40
2018-11-05T21:42:12.375Z,6.00
2018-11-05T21:44:41.108Z,6.43
2018-11-05T21:47:10.785Z,5.60
2018-11-05T22:35:11.038Z,8.00
2018-11-05T22:37:41.126Z,6.20
2018-11-05T22:40:10.100Z,8.73
2018-11-05T22:42:38.133Z,7.97
2018-11-05T22:45:07.023Z,6.90
2018-11-05T22:47:36.954Z,8.23
2018-11-05T22:50:07.725Z,7.80
2018-11-05T22:52:38.256Z,7.50
2018-11-05T22:55:08.200Z,8.40
2018-11-05T22:57:37.062Z,8.00
2018-11-05T23:00:15.802Z,8.00
2018-11-05T23:02:52.073Z,7.80
2018-11-05T23:05:24.251Z,8.17
2018-11-05T23:07:54.010Z,7.27
2018-11-05T23:10:24.151Z,8.20
2018-11-05T23:12:52.523Z,7.90
2018-11-05T23:15:20.869Z,8.10
2018-11-05T23:17:51.442Z,8.27
2018-11-05T23:20:20.498Z,7.90
2018-11-05T23:22:51.285Z,7.50
2018-11-05T23:25:20.426Z,8.80
2018-11-05T23:27:49.866Z,7.43
2018-11-05T23:30:18.278Z,6.80
2018-11-05T23:32:47.713Z,8.30
2018-11-05T23:35:16.422Z,8.27
2018-11-05T23:37:45.171Z,7.73
2018-11-05T23:40:13.197Z,8.37
2018-11-05T23:42:45.727Z,7.80
2018-11-05T23:45:16.031Z,6.87
2018-11-05T23:47:46.340Z,7.57
2018-11-05T23:50:16.935Z,7.47
2018-11-05T23:52:45.727Z,7.47
2018-11-05T23:55:16.648Z,7.90
2018-11-05T23:57:46.469Z,7.80
